| time (UTC) | temp F | wind direction | speed knots | gust knots | rain 1hr in | rain 24hr in | rain mn in | humidity % | barometer mb |
| 20260507024521 | 45 | 2.6 | 6.1 | 0.00 | 0.51 | 0.00 | 99 | 1012.5 | |
| 20260507023518 | 45 | 3.5 | 7.0 | 0.00 | 0.52 | 0.00 | 99 | 1012.4 | |
| 20260507022516 | 45 | 1.7 | 5.2 | 0.00 | 0.54 | 0.00 | 99 | 1012.4 | |
| 20260507021614 | 45 | 2.6 | 5.2 | 0.00 | 0.56 | 0.00 | 99 | 1012.3 | |
| 20260507020611 | 45 | 2.6 | 7.0 | 0.00 | 0.57 | 0.00 | 99 | 1012.2 | |
| 20260507015609 | 45 | 2.6 | 7.0 | 0.00 | 0.57 | 0.00 | 99 | 1012.1 | |
| 20260507014606 | 45 | 2.6 | 6.1 | 0.00 | 0.59 | 0.00 | 99 | 1012.0 | |
| 20260507013604 | 45 | 2.6 | 5.2 | 0.00 | 0.60 | 0.00 | 99 | 1012.0 | |
| 20260507012601 | 45 | 2.6 | 7.0 | 0.00 | 0.63 | 0.00 | 99 | 1012.0 | |
| 20260507011558 | 45 | 2.6 | 6.1 | 0.00 | 0.64 | 0.00 | 99 | 1011.9 | |
| 20260507010556 | 45 | 2.6 | 7.0 | 0.00 | 0.65 | 0.00 | 99 | 1011.9 | |
| 20260507005553 | 45 | 1.7 | 4.3 | 0.00 | 0.66 | 0.00 | 99 | 1011.9 | |
| 20260507004551 | 45 | 5.2 | 9.6 | 0.00 | 0.67 | 0.00 | 98 | 1011.7 | |
| 20260507003548 | 45 | 3.5 | 8.7 | 0.00 | 0.69 | 0.00 | 99 | 1011.8 | |
| 20260507002546 | 44 | 1.7 | 6.1 | 0.00 | 0.70 | 0.00 | 99 | 1011.8 | |
| 20260507001543 | 44 | 2.6 | 6.1 | 0.00 | 0.71 | 0.00 | 99 | 1011.7 | |
| 20260507000541 | 44 | 2.6 | 7.0 | 0.00 | 0.73 | 0.00 | 99 | 1011.8 | |
| 20260506235538 | 44 | 3.5 | 7.8 | 0.00 | 0.74 | 0.00 | 99 | 1011.7 | |
| 20260506234536 | 44 | 3.5 | 7.0 | 0.00 | 0.76 | 0.00 | 99 | 1011.8 | |
| 20260506233533 | 44 | 3.5 | 9.6 | 0.00 | 0.78 | 0.00 | 99 | 1011.8 | |
| 20260506232531 | 44 | 5.2 | 10.4 | 0.00 | 0.79 | 0.00 | 99 | 1011.6 | |
| 20260506231528 | 44 | 4.3 | 9.6 | 0.00 | 0.81 | 0.00 | 99 | 1011.6 | |
| 20260506230526 | 44 | 4.3 | 9.6 | 0.00 | 0.86 | 0.00 | 99 | 1011.5 | |
| 20260506225523 | 44 | 6.1 | 11.3 | 0.00 | 0.89 | 0.00 | 99 | 1011.5 | |
| 20260506224520 | 44 | 5.2 | 9.6 | 0.00 | 0.91 | 0.00 | 99 | 1011.4 | |
| 20260506223518 | 44 | 5.2 | 9.6 | 0.00 | 0.92 | 0.00 | 99 | 1011.2 | |
| 20260506222515 | 44 | 5.2 | 8.7 | 0.00 | 0.93 | 0.00 | 99 | 1011.2 | |
| 20260506221613 | 44 | 5.2 | 8.7 | 0.00 | 0.94 | 0.00 | 99 | 1011.2 | |
| 20260506220610 | 44 | 3.5 | 6.1 | 0.00 | 0.96 | 0.00 | 99 | 1011.2 | |
| 20260506215608 | 44 | 4.3 | 8.7 | 0.00 | 0.96 | 0.96 | 99 | 1011.2 | |
| 20260506214605 | 44 | 3.5 | 7.0 | 0.00 | 0.97 | 0.96 | 99 | 1011.2 | |
| 20260506213603 | 44 | 2.6 | 7.0 | 0.00 | 0.97 | 0.96 | 99 | 1010.9 | |
| 20260506212600 | 44 | 2.6 | 7.0 | 0.00 | 0.97 | 0.96 | 99 | 1010.9 | |
| 20260506211558 | 44 | 2.6 | 5.2 | 0.00 | 0.98 | 0.96 | 99 | 1010.9 | |
| 20260506210555 | 44 | 1.7 | 5.2 | 0.00 | 0.98 | 0.96 | 99 | 1010.9 | |
| 20260506205553 | 44 | 1.7 | 7.0 | 0.00 | 0.98 | 0.96 | 99 | 1010.8 | |
| 20260506204550 | 44 | 2.6 | 5.2 | 0.00 | 0.98 | 0.96 | 99 | 1010.7 | |
| 20260506203548 | 44 | 2.6 | 5.2 | 0.00 | 0.98 | 0.96 | 99 | 1010.7 | |
| 20260506202545 | 44 | 1.7 | 3.5 | 0.00 | 0.98 | 0.96 | 99 | 1010.5 | |
| 20260506201542 | 44 | 2.6 | 7.0 | 0.00 | 0.98 | 0.96 | 99 | 1010.6 | |
| 20260506200540 | 44 | 1.7 | 6.1 | 0.00 | 0.98 | 0.96 | 99 | 1010.6 | |
| 20260506195538 | 44 | 1.7 | 6.1 | 0.00 | 0.98 | 0.96 | 99 | 1010.4 | |
| 20260506194535 | 44 | 1.7 | 5.2 | 0.00 | 0.98 | 0.96 | 99 | 1010.3 | |
| 20260506193532 | 44 | 1.7 | 3.5 | 0.00 | 0.98 | 0.96 | 99 | 1010.4 | |
| 20260506192530 | 44 | 1.7 | 5.2 | 0.00 | 0.98 | 0.96 | 99 | 1010.2 | |
| 20260506191527 | 44 | 1.7 | 6.1 | 0.00 | 0.98 | 0.96 | 99 | 1010.1 | |
| 20260506190525 | 44 | 2.6 | 6.1 | 0.00 | 0.98 | 0.96 | 99 | 1009.9 | |
| 20260506185522 | 44 | 2.6 | 7.0 | 0.00 | 0.98 | 0.96 | 99 | 1009.8 | |
| 20260506184520 | 45 | 2.6 | 7.0 | 0.00 | 0.98 | 0.96 | 99 | 1009.7 | |
| 20260506183517 | 45 | 2.6 | 7.0 | 0.00 | 0.98 | 0.96 | 99 | 1009.7 | |
| 20260506182515 | 45 | 2.6 | 7.8 | 0.00 | 0.98 | 0.96 | 99 | 1009.4 | |
| 20260506181612 | 45 | 1.7 | 5.2 | 0.00 | 0.98 | 0.96 | 99 | 1009.3 | |
| 20260506180610 | 45 | 2.6 | 7.0 | 0.00 | 0.98 | 0.96 | 99 | 1009.1 | |
| 20260506175607 | 45 | 2.6 | 7.0 | 0.00 | 0.98 | 0.96 | 99 | 1009.1 | |
| 20260506174605 | 45 | 2.6 | 8.7 | 0.00 | 0.98 | 0.96 | 99 | 1009.0 | |
| 20260506173602 | 46 | 2.6 | 7.0 | 0.00 | 0.98 | 0.96 | 99 | 1008.9 | |
| 20260506172600 | 46 | 1.7 | 6.1 | 0.01 | 0.98 | 0.96 | 99 | 1008.8 | |
| 20260506171557 | 46 | 0.9 | 3.5 | 0.01 | 0.98 | 0.96 | 99 | 1008.8 | |
| 20260506170555 | 46 | 2.6 | 7.0 | 0.01 | 0.98 | 0.96 | 99 | 1008.7 | |
| 20260506165552 | 46 | 2.6 | 7.0 | 0.02 | 0.98 | 0.96 | 99 | 1008.6 | |
| 20260506164550 | 46 | 1.7 | 4.3 | 0.02 | 0.98 | 0.96 | 99 | 1008.4 | |
| 20260506163547 | 46 | 2.6 | 6.1 | 0.02 | 0.98 | 0.96 | 99 | 1008.4 | |
| 20260506162545 | 46 | 2.6 | 7.0 | 0.02 | 0.97 | 0.94 | 99 | 1008.5 | |
| 20260506161542 | 46 | 2.6 | 7.8 | 0.02 | 0.97 | 0.94 | 99 | 1008.4 | |
| 20260506160540 | 46 | 1.7 | 7.0 | 0.02 | 0.97 | 0.94 | 99 | 1008.4 | |
| 20260506155537 | 46 | 1.7 | 7.0 | 0.01 | 0.96 | 0.93 | 99 | 1008.4 | |
| 20260506154534 | 46 | 0.9 | 4.3 | 0.01 | 0.96 | 0.93 | 99 | 1008.4 | |
| 20260506153532 | 46 | 0.9 | 3.5 | 0.01 | 0.96 | 0.93 | 99 | 1008.3 | |
| 20260506152529 | 46 | 1.7 | 5.2 | 0.00 | 0.94 | 0.92 | 99 | 1008.3 | |
| 20260506151527 | 46 | 1.7 | 6.1 | 0.00 | 0.94 | 0.92 | 99 | 1008.3 | |
| 20260506150524 | 46 | 0.9 | 4.3 | 0.00 | 0.94 | 0.92 | 99 | 1008.2 | |
| 20260506145522 | 46 | 1.7 | 3.5 | 0.00 | 0.94 | 0.92 | 99 | 1008.1 | |
| 20260506144519 | 46 | 2.6 | 7.0 | 0.00 | 0.94 | 0.92 | 99 | 1008.1 | |
| 20260506143517 | 46 | 0.9 | 3.5 | 0.00 | 0.94 | 0.92 | 99 | 1008.0 | |
| 20260506142614 | 46 | 0.9 | 3.5 | 0.01 | 0.94 | 0.92 | 99 | 1008.0 | |
| 20260506141612 | 46 | 1.7 | 5.2 | 0.01 | 0.94 | 0.92 | 99 | 1008.1 | |
| 20260506140609 | 46 | 1.7 | 5.2 | 0.01 | 0.94 | 0.92 | 99 | 1008.0 | |
| 20260506135607 | 46 | 0.9 | 5.2 | 0.01 | 0.94 | 0.92 | 99 | 1008.1 | |
| 20260506134604 | 46 | 1.7 | 5.2 | 0.01 | 0.94 | 0.92 | 99 | 1008.0 | |
| 20260506133602 | 46 | 1.7 | 4.3 | 0.01 | 0.94 | 0.92 | 99 | 1007.9 | |
| 20260506132559 | 45 | 1.7 | 7.0 | 0.00 | 0.93 | 0.91 | 99 | 1007.9 | |
| 20260506131557 | 45 | 1.7 | 6.1 | 0.01 | 0.93 | 0.91 | 99 | 1008.0 | |
| 20260506130554 | 45 | 1.7 | 6.1 | 0.02 | 0.93 | 0.91 | 99 | 1007.8 | |
| 20260506125552 | 45 | 2.6 | 6.1 | 0.02 | 0.93 | 0.91 | 99 | 1007.8 | |
| 20260506124549 | 45 | 1.7 | 7.0 | 0.04 | 0.93 | 0.91 | 99 | 1007.7 | |
| 20260506123547 | 45 | 2.6 | 6.1 | 0.04 | 0.93 | 0.91 | 99 | 1007.7 | |
| 20260506122544 | 45 | 1.7 | 5.2 | 0.05 | 0.93 | 0.91 | 99 | 1007.6 | |
| 20260506121542 | 45 | 2.6 | 7.0 | 0.05 | 0.92 | 0.90 | 99 | 1007.7 | |
| 20260506120539 | 45 | 3.5 | 7.0 | 0.04 | 0.91 | 0.89 | 99 | 1007.5 | |
| 20260506115537 | 45 | 2.6 | 7.0 | 0.05 | 0.91 | 0.89 | 99 | 1007.5 | |
| 20260506114534 | 45 | 1.7 | 7.0 | 0.05 | 0.90 | 0.87 | 99 | 1007.3 | |
| 20260506113532 | 45 | 1.7 | 6.1 | 0.06 | 0.90 | 0.87 | 99 | 1007.3 | |
| 20260506112529 | 45 | 2.6 | 6.1 | 0.06 | 0.89 | 0.86 | 99 | 1007.4 | |
| 20260506111527 | 45 | 1.7 | 6.1 | 0.06 | 0.87 | 0.85 | 99 | 1007.3 | |
| 20260506110524 | 45 | 1.7 | 4.3 | 0.07 | 0.87 | 0.85 | 99 | 1007.2 | |
| 20260506105522 | 45 | 1.7 | 5.2 | 0.06 | 0.86 | 0.84 | 99 | 1007.2 | |
| 20260506104519 | 45 | 1.7 | 7.0 | 0.05 | 0.85 | 0.83 | 99 | 1007.2 | |
| 20260506103516 | 45 | 2.6 | 6.1 | 0.05 | 0.84 | 0.81 | 99 | 1007.1 | |
| 20260506102614 | 45 | 1.7 | 8.7 | 0.04 | 0.83 | 0.80 | 99 | 1007.0 | |
| 20260506101612 | 45 | 2.6 | 8.7 | 0.04 | 0.81 | 0.79 | 99 | 1006.9 | |
| 20260506100609 | 45 | 1.7 | 5.2 | 0.04 | 0.80 | 0.78 | 99 | 1006.8 | |
| 20260506095606 | 45 | 2.6 | 7.0 | 0.05 | 0.80 | 0.78 | 99 | 1006.7 | |
| 20260506094604 | 45 | 2.6 | 6.1 | 0.06 | 0.80 | 0.78 | 99 | 1006.7 | |
| 20260506093601 | 45 | 2.6 | 7.0 | 0.05 | 0.79 | 0.77 | 99 | 1006.7 | |
| 20260506092559 | 45 | 3.5 | 7.0 | 0.05 | 0.79 | 0.77 | 99 | 1006.6 | |
| 20260506091556 | 46 | 2.6 | 6.1 | 0.04 | 0.78 | 0.76 | 99 | 1006.5 | |
| 20260506090554 | 46 | 2.6 | 7.0 | 0.02 | 0.77 | 0.74 | 99 | 1006.4 | |
| 20260506085551 | 46 | 1.7 | 4.3 | 0.01 | 0.76 | 0.73 | 99 | 1006.5 | |
| 20260506084549 | 47 | 1.7 | 6.1 | 0.00 | 0.74 | 0.72 | 99 | 1006.3 | |
| 20260506083546 | 47 | 2.6 | 7.0 | 0.01 | 0.74 | 0.72 | 99 | 1006.4 | |
| 20260506082544 | 46 | 1.7 | 4.3 | 0.01 | 0.74 | 0.72 | 99 | 1006.2 | |
| 20260506081541 | 46 | 2.6 | 7.0 | 0.02 | 0.74 | 0.72 | 99 | 1006.3 | |
| 20260506080539 | 47 | 2.6 | 7.0 | 0.04 | 0.74 | 0.72 | 99 | 1006.3 | |
| 20260506072529 | 47 | 3.5 | 8.7 | 0.07 | 0.73 | 0.71 | 99 | 1006.0 | |
| 20260506071526 | 47 | 1.7 | 4.3 | 0.07 | 0.72 | 0.70 | 99 | 1006.0 | |
| 20260506070524 | 47 | 0.9 | 4.3 | 0.07 | 0.71 | 0.69 | 99 | 1006.0 | |
| 20260506061611 | 47 | 2.6 | 7.0 | 0.05 | 0.77 | 0.63 | 99 | 1005.7 | |
| 20260506060609 | 47 | 3.5 | 7.8 | 0.05 | 0.78 | 0.61 | 99 | 1005.6 | |
| 20260506050553 | 47 | 2.6 | 7.0 | 0.05 | 0.89 | 0.57 | 99 | 1005.7 | |
| 20260506044548 | 47 | 1.7 | 6.1 | 0.05 | 0.96 | 0.56 | 99 | 1005.6 | |
| 20260506043546 | 47 | 2.6 | 7.0 | 0.05 | 0.96 | 0.54 | 99 | 1005.6 | |
| 20260506042543 | 47 | 2.6 | 7.0 | 0.05 | 0.96 | 0.53 | 99 | 1005.6 | |
| 20260506041541 | 47 | 2.6 | 7.8 | 0.05 | 0.94 | 0.52 | 99 | 1005.5 | |
| 20260506040538 | 47 | 2.6 | 7.0 | 0.06 | 0.96 | 0.52 | 99 | 1005.5 | |
| 20260506035536 | 47 | 1.7 | 4.3 | 0.05 | 0.96 | 0.51 | 99 | 1005.6 | |
| 20260506034533 | 47 | 1.7 | 5.2 | 0.06 | 0.96 | 0.51 | 99 | 1005.5 | |
| 20260506033600 | 47 | 2.6 | 7.0 | 0.06 | 0.94 | 0.50 | 99 | 1005.6 | |
| 20260506032558 | 48 | 1.7 | 6.1 | 0.07 | 0.93 | 0.48 | 99 | 1005.6 | |
| 20260506031555 | 48 | 1.7 | 5.2 | 0.07 | 0.92 | 0.47 | 99 | 1005.7 | |
| 20260506030553 | 48 | 1.7 | 5.2 | 0.07 | 0.92 | 0.46 | 99 | 1005.8 | |
| 20260506025550 | 48 | 3.5 | 9.6 | 0.07 | 0.92 | 0.46 | 99 | 1005.7 |